Bad Axe, MI

10:24 AM EST on February 24, 2017 (GMT -0500)
Thumb sunrise side | | Change Station
Active Advisory: Special Statement

Elev 758 ft 43.79 °N, 83.00 °W | Updated 46 seconds ago

Light Snow
Light Snow
36.5 °F
Feels Like 30 °F
N
9.0
Wind Variable Wind from ESE

Today
High -- | Low -- °F
--% Chance of Precip.
Yesterday
High -- | Low -- °F
Precip. -- in
Pressure 29.64 in
Visibility 1.8 miles
Clouds Overcast 300 ft
Windchill 30 °F
Dew Point 35 °F
Humidity 96%
Rainfall 0.27 in
Snow Depth Not available.
7:16 AM 6:14 PM
Waning Crescent, 5% visible
METAR KBAX 241517Z AUTO 08009G16KT 1 3/4SM -SN OVC003 02/02 A2964 RMK AO2 T00220020
Pressure 29.64 in
Visibility 1.8 miles
Clouds Overcast 300 ft
Windchill 30 °F
Dew Point 35 °F
Humidity 96%
Rainfall 0.27 in
Snow Depth Not available.
7:16 AM 6:14 PM
Waning Crescent, 5% visible
METAR KBAX 241517Z AUTO 08009G16KT 1 3/4SM -SN OVC003 02/02 A2964 RMK AO2 T00220020

Get Your Daily Forecast Email!

Thanks for signing up!

Be on the lookout for a verification email in your inbox.

You'll start receiving the daily forecast at 8 AM.

×

10-Day Weather Forecast

Almanac

Astronomy

Feb. 24, 2017 Rise Set
Actual Time
Civil Twilight
Nautical Twilight
Astronomical Twilight
Moon
Length of Visible Light
Length of Day
Tomorrow will be .
, % of the Moon is Illuminated

Today's Extremes

State Highs State Lows

Community

WunderPhotos

Upload Photos

1,962,540 photos uploaded!

WunderBlog® & News

Nearby

Air Quality

  Air Quality AQ Index Pollutant
Not available.

Snow Depth

Station Depth Elevation

Earthquake Activity

City Distance Mag. Time & Date
Minimum magnitude displayed is 2.5.

Coastal Water Temperatures

Place Temperature

Stations

Nearby Weather Stations

Station Location Temp. Windchill Dew Point Humidity Wind Precip. Elev Updated Type
                   

Watches & Warnings

Special Statement
Issued: 10:17 AM EST Feb. 24, 2017 – National Weather Service

... Special Weather Statement...

At 1017 am EST, Doppler radar indicated thunderstorms along a line
extending from 7 miles east of Pinconning to Otisville. Movement was
northeast at 65 mph.

Pea size hail and brief heavy downpours will be possible with these
storms.

Strong thunderstorms will be near...
Mayville around 1030 am EST.
Clifford around 1035 am EST.
Marlette and Kingston around 1040 am EST.
Caseville around 1045 am EST.
Sandusky and Port Austin around 1055 am EST.
Deckerville and Carsonville around 1100 am EST.
Port Sanilac around 1105 am EST.

Other locations impacted by these storms include Parisville, Colling,
Huron City, White Rock, Wisner, Ivanhoe, Rapson, Grindstone City,
Ellington and Juhl.

Lat... Lon 4407 8286 4401 8272 4384 8259 4332 8249
      4322 8350 4322 8360 4349 8370 4360 8370
      4362 8374 4365 8376 4362 8368 4372 8359
      4375 8351 4379 8348 4387 8349 4393 8344
      4395 8334 4400 8328 4403 8310 4407 8304
time... Mot... loc 1517z 245deg 57kt 4385 8382 4319 8354


Mann